CheckWX is a tool to help pilots better visualize weather data.  It is not intended as a substitute for an official pre-flight weather briefing.

21:45:20 UTC

KGRF METAR
Gray AAF Airport
Fort Lewis/Tacoma, Washington, USA
Current

47 mins ago

KGRF 232058Z AUTO 27005KT 10SM CLR 22/15 A2996 RMK AO2 SLP149 T02220148 57023 $
Observed
May-23 @ 20:58 UTC
Wind
  • 270° at 5 KTS
Visibility
10 SM
Flight Rules
VFR
Cloud Levels
  • Clear skies
Temperature
22°C / 72°F
Dewpoint
15°C / 59°F
Humidity
65%
Altimeter
29.96" Hg
Pressure
1014.52 hPa
Previous

2 hours ago

KGRF 231958Z AUTO 28005KT 10SM CLR 21/16 A2999 RMK AO2 SLP159 T02050157 $
Observed
May-23 @ 19:58 UTC
Wind
  • 280° at 5 KTS
Visibility
10 SM
Flight Rules
VFR
Cloud Levels
  • Clear skies
Temperature
21°C / 70°F
Dewpoint
16°C / 61°F
Humidity
73%
Altimeter
29.99" Hg
Pressure
1015.62 hPa
Previous

3 hours ago

KGRF 231858Z AUTO 00000KT 10SM CLR 17/16 A3001 RMK AO2 SLP166 T01700160 $
Observed
May-23 @ 18:58 UTC
Visibility
10 SM
Flight Rules
VFR
Cloud Levels
  • Clear skies
Temperature
17°C / 63°F
Dewpoint
16°C / 61°F
Humidity
94%
Altimeter
30.01" Hg
Pressure
1016.22 hPa